Time;durP1;ratioP1;P1;durP2;ratioP2;P2;SDS_P1;SDS_P2;PMS_P1;PMS_P2;Temp;Humidity;BMP_temperature;BMP_pressure;BME280_temperature;BME280_humidity;BME280_pressure;Samples;Min_cycle;Max_cycle;Signal;HPM_P1;HPM_P2
2023/04/07 00:04:15;;;;;;;3.40;2.25;;;;;;;14.87;48.18;100296.22;12928061;22;96737;-84
2023/04/07 00:09:22;;;;;;;3.35;2.00;;;;;;;14.60;49.86;100296.81;12928670;22;96612;-84
2023/04/07 00:14:33;;;;;;;2.65;1.95;;;;;;;14.61;49.92;100297.66;12927013;22;96786;-85
2023/04/07 00:19:42;;;;;;;3.30;2.50;;;;;;;14.44;50.68;100303.88;12928233;22;96948;-85
2023/04/07 00:24:47;;;;;;;3.72;1.90;;;;;;;14.43;50.59;100301.31;12928179;22;97027;-84
2023/04/07 00:29:54;;;;;;;4.20;2.20;;;;;;;14.36;50.22;100302.59;12915441;22;97132;-85
2023/04/07 00:35:00;;;;;;;2.80;2.28;;;;;;;14.48;49.46;100301.94;12928033;22;96907;-85
2023/04/07 00:40:05;;;;;;;3.00;2.13;;;;;;;14.47;49.47;100293.13;12927914;22;96717;-84
2023/04/07 00:45:11;;;;;;;5.28;2.60;;;;;;;14.28;50.82;100300.34;12927908;22;96864;-84
2023/04/07 00:50:21;;;;;;;4.22;2.33;;;;;;;14.43;48.68;100296.03;12929048;22;96572;-84
2023/04/07 00:55:29;;;;;;;4.80;2.22;;;;;;;14.07;50.99;100295.38;12927879;22;96580;-85
2023/04/07 01:00:39;;;;;;;2.92;2.00;;;;;;;14.09;50.97;100296.16;12927621;22;96685;-85
2023/04/07 01:05:56;;;;;;;4.05;2.53;;;;;;;14.00;51.36;100299.25;12926141;22;96699;-86
2023/04/07 01:11:13;;;;;;;3.22;2.30;;;;;;;14.21;49.13;100300.78;12927807;22;97105;-86
2023/04/07 01:16:23;;;;;;;4.33;2.37;;;;;;;14.58;46.35;100292.53;12927086;22;96680;-86
2023/04/07 01:21:33;;;;;;;5.95;2.50;;;;;;;14.55;46.74;100293.56;12927317;22;96636;-85
2023/04/07 01:26:38;;;;;;;4.68;2.13;;;;;;;14.29;48.88;100296.78;12927628;22;96539;-85
2023/04/07 01:31:49;;;;;;;4.07;2.90;;;;;;;14.62;46.99;100287.00;12927240;22;96692;-85
2023/04/07 01:36:55;;;;;;;3.90;2.47;;;;;;;14.28;48.64;100286.28;12920702;22;96920;-85
2023/04/07 01:42:03;;;;;;;6.22;2.90;;;;;;;14.45;47.31;100273.81;12920416;22;98181;-84
2023/04/07 01:47:09;;;;;;;3.65;2.33;;;;;;;14.30;48.41;100276.44;12919828;22;96769;-85
2023/04/07 01:52:16;;;;;;;4.05;2.50;;;;;;;14.03;49.97;100272.66;12920379;22;96793;-85
2023/04/07 01:57:20;;;;;;;4.30;2.17;;;;;;;13.79;51.05;100279.19;12919039;22;96763;-85
2023/04/07 02:02:26;;;;;;;2.83;2.03;;;;;;;13.73;50.89;100280.38;12920036;22;97003;-86
2023/04/07 02:07:39;;;;;;;5.75;2.80;;;;;;;13.90;49.58;100268.94;12919876;22;96730;-85
2023/04/07 02:12:46;;;;;;;3.53;2.63;;;;;;;14.17;48.17;100263.03;12919639;22;96701;-84
2023/04/07 02:17:54;;;;;;;5.18;2.20;;;;;;;14.07;49.27;100269.78;12921761;22;97030;-85
2023/04/07 02:22:58;;;;;;;3.40;2.28;;;;;;;14.45;46.12;100268.50;12923063;22;96697;-84
2023/04/07 02:28:14;;;;;;;;;;;;;;;;;;;;;
2023/04/07 02:33:19;;;;;;;4.35;2.20;;;;;;;14.62;45.56;100273.75;12921307;22;96702;-84
2023/04/07 02:38:22;;;;;;;4.10;2.70;;;;;;;14.12;48.58;100272.16;12922485;22;96661;-84
2023/04/07 02:43:30;;;;;;;2.80;1.90;;;;;;;13.89;49.84;100268.06;12922514;22;96680;-84
2023/04/07 02:48:38;;;;;;;3.65;2.45;;;;;;;13.83;49.45;100263.06;12920994;22;96775;-84
2023/04/07 03:16:13;;;;;;;4.63;2.58;;;;;;;13.28;52.56;100267.72;11951709;24;97096;-84
2023/04/07 03:21:16;;;;;;;4.95;2.30;;;;;;;13.16;52.16;100265.69;12518340;23;97177;-85
2023/04/07 03:26:20;;;;;;;4.53;2.28;;;;;;;13.22;52.22;100268.03;12603017;23;96879;-85
2023/04/07 03:31:25;;;;;;;5.20;2.42;;;;;;;13.20;52.46;100264.63;12683006;22;96898;-85
2023/04/07 03:36:31;;;;;;;3.30;2.47;;;;;;;13.06;52.67;100267.09;12922015;22;96681;-85
2023/04/07 03:41:39;;;;;;;4.00;2.38;;;;;;;12.86;54.16;100272.47;12920843;22;96617;-85
2023/04/07 03:46:46;;;;;;;2.73;1.93;;;;;;;13.16;51.53;100264.81;12921934;22;96743;-84
2023/04/07 03:51:51;;;;;;;4.22;2.60;;;;;;;12.86;53.79;100269.81;12922102;22;96604;-84
2023/04/07 03:57:08;;;;;;;3.55;2.10;;;;;;;12.79;54.41;100263.13;12922009;22;96706;-84
2023/04/07 04:02:17;;;;;;;3.42;2.10;;;;;;;12.83;53.95;100255.91;12921984;22;96690;-85
2023/04/07 04:07:21;;;;;;;3.28;2.28;;;;;;;12.99;52.99;100260.41;12922073;22;96626;-85
2023/04/07 04:12:24;;;;;;;2.42;1.83;;;;;;;13.28;50.07;100259.78;12921618;22;96722;-84
2023/04/07 04:17:35;;;;;;;5.45;2.28;;;;;;;13.33;50.46;100262.19;12923104;22;97780;-83
2023/04/07 04:22:40;;;;;;;3.10;2.03;;;;;;;13.41;50.50;100266.19;12921507;22;96616;-83
2023/04/07 04:27:49;;;;;;;5.90;2.08;;;;;;;13.47;49.69;100265.00;12921666;22;96722;-85
2023/04/07 04:32:56;;;;;;;3.65;2.28;;;;;;;13.28;52.27;100265.06;12919951;22;96827;-85
2023/04/07 04:38:01;;;;;;;3.53;2.20;;;;;;;13.03;53.19;100264.59;12921032;22;96641;-85
2023/04/07 04:43:09;;;;;;;4.07;1.90;;;;;;;13.03;51.84;100259.31;12921145;22;96605;-84
2023/04/07 04:48:17;;;;;;;5.25;2.13;;;;;;;13.00;50.95;100253.34;12918006;22;96850;-86
2023/04/07 04:53:21;;;;;;;4.68;2.00;;;;;;;12.96;51.69;100257.91;12918705;22;96645;-86
2023/04/07 04:58:26;;;;;;;3.10;1.95;;;;;;;13.06;50.29;100255.66;12921036;22;96707;-85
2023/04/07 05:03:33;;;;;;;2.87;1.80;;;;;;;12.99;51.53;100260.41;12920919;22;96813;-84
2023/04/07 05:08:48;;;;;;;2.93;2.07;;;;;;;13.09;50.75;100258.13;12922123;22;96944;-85
2023/04/07 05:13:57;;;;;;;4.95;2.00;;;;;;;12.91;52.58;100277.53;12920790;22;96764;-84
2023/04/07 05:19:04;;;;;;;3.20;1.85;;;;;;;12.95;51.84;100264.09;12920832;22;96733;-84
2023/04/07 05:24:29;;;;;;;2.65;1.83;;;;;;;13.01;50.35;100255.03;12912674;22;96807;-83
2023/04/07 05:29:34;;;;;;;2.90;2.00;;;;;;;12.91;51.95;100256.41;12920802;22;96999;-85
2023/04/07 05:34:40;;;;;;;4.10;2.03;;;;;;;12.93;51.32;100254.56;12920066;22;96823;-85
2023/04/07 07:35:44;;;;;;;1.95;1.30;;;;;;;19.37;34.36;100308.88;12916517;22;98212;-85
2023/04/07 07:40:47;;;;;;;2.30;1.35;;;;;;;19.43;33.70;100316.44;12922108;22;96653;-86
2023/04/07 07:45:51;;;;;;;1.90;1.33;;;;;;;20.33;32.19;100319.25;12921665;22;96641;-84
2023/04/07 07:51:01;;;;;;;3.15;1.45;;;;;;;20.75;31.07;100313.19;12923232;22;96716;-84
2023/04/07 07:56:13;;;;;;;2.58;1.48;;;;;;;21.45;29.77;100313.63;12922382;22;96693;-87
2023/04/07 08:01:18;;;;;;;1.85;1.45;;;;;;;22.29;29.16;100317.09;12917640;22;96721;-86
2023/04/07 08:06:26;;;;;;;2.05;1.20;;;;;;;21.80;28.07;100316.00;12917170;22;96700;-87
2023/04/07 08:11:32;;;;;;;1.90;1.10;;;;;;;22.83;27.61;100315.91;12921690;22;96656;-87
2023/04/07 08:16:37;;;;;;;2.35;1.40;;;;;;;22.14;27.83;100307.66;12920839;22;96692;-87
2023/04/07 08:21:41;;;;;;;1.90;1.35;;;;;;;22.28;27.37;100309.19;12921637;22;96688;-87
2023/04/07 08:26:48;;;;;;;4.55;1.55;;;;;;;21.81;27.54;100299.81;12918408;22;96966;-87
2023/04/07 08:31:54;;;;;;;3.30;1.50;;;;;;;21.31;28.06;100295.19;12920743;22;96916;-87
2023/04/07 08:36:59;;;;;;;2.55;1.58;;;;;;;21.46;27.96;100293.91;12917966;22;96718;-87
2023/04/07 08:42:02;;;;;;;2.80;1.60;;;;;;;21.63;27.49;100287.13;12922360;22;96581;-86
2023/04/07 08:47:07;;;;;;;3.40;1.70;;;;;;;21.26;27.40;100286.66;12920007;22;96747;-86
2023/04/07 08:52:16;;;;;;;3.53;1.50;;;;;;;21.68;26.88;100288.44;12918422;22;97103;-84
2023/04/07 08:57:21;;;;;;;2.90;1.55;;;;;;;22.07;26.52;100284.22;12920155;22;96612;-86
2023/04/07 09:02:25;;;;;;;2.80;1.60;;;;;;;22.79;25.09;100276.91;12920691;22;96645;-86
2023/04/07 09:07:34;;;;;;;2.20;1.23;;;;;;;23.01;24.60;100282.06;12920779;22;96874;-87
2023/04/07 09:12:43;;;;;;;2.47;0.98;;;;;;;22.83;24.50;100283.72;12920890;22;96706;-86
2023/04/07 09:17:48;;;;;;;1.90;1.10;;;;;;;23.29;24.26;100270.50;12918030;22;96714;-86
2023/04/07 09:22:52;;;;;;;1.60;1.25;;;;;;;23.32;23.80;100270.25;12920653;22;96634;-86
2023/04/07 09:28:02;;;;;;;5.03;1.50;;;;;;;23.18;23.78;100262.59;12919785;22;97014;-87
2023/04/07 09:33:12;;;;;;;2.80;1.45;;;;;;;23.60;23.52;100253.28;12920979;22;96725;-86
2023/04/07 09:38:21;;;;;;;2.17;0.95;;;;;;;24.10;22.64;100264.66;12917967;22;96677;-86
2023/04/07 09:43:47;;;;;;;4.07;1.20;;;;;;;24.41;22.51;100258.06;12916982;22;96777;-84
2023/04/07 09:49:04;;;;;;;1.45;1.00;;;;;;;23.69;22.51;100249.72;12857922;22;97087;-86
2023/04/07 09:54:18;;;;;;;1.52;1.20;;;;;;;24.24;22.36;100246.19;12920058;22;96726;-86
2023/04/07 09:59:23;;;;;;;1.55;0.77;;;;;;;24.21;22.15;100251.00;12920202;22;96720;-86
2023/04/07 10:04:30;;;;;;;1.90;1.00;;;;;;;24.30;22.02;100247.47;12919720;22;97273;-86
2023/04/07 10:10:18;;;;;;;1.88;0.90;;;;;;;24.66;21.84;100236.69;12919905;22;96682;-87
2023/04/07 10:15:23;;;;;;;2.15;1.02;;;;;;;25.68;21.00;100244.28;12917202;22;96497;-78
2023/04/07 10:20:27;;;;;;;1.33;0.90;;;;;;;25.16;20.71;100237.06;12917344;22;96767;-82
2023/04/07 10:25:35;;;;;;;2.00;1.15;;;;;;;25.30;20.09;100231.16;12917202;22;96633;-78
2023/04/07 10:30:39;;;;;;;3.83;1.10;;;;;;;25.90;20.24;100224.06;12910492;22;97450;-74
2023/04/07 10:36:04;;;;;;;1.52;0.90;;;;;;;25.79;19.95;100237.81;12911198;22;97096;-76
2023/04/07 10:41:35;;;;;;;2.20;1.10;;;;;;;26.46;19.04;100224.41;12915838;22;97312;-76
2023/04/07 10:47:04;;;;;;;2.83;0.80;;;;;;;26.28;19.08;100225.47;12905233;22;97409;-74
2023/04/07 10:52:24;;;;;;;1.65;0.80;;;;;;;26.83;18.86;100215.94;12916700;22;96840;-85
2023/04/07 10:57:30;;;;;;;2.78;0.98;;;;;;;27.82;18.14;100207.56;12915507;22;97223;-79
2023/04/07 11:02:34;;;;;;;2.40;0.93;;;;;;;28.28;17.37;100205.94;12915883;22;97103;-81
2023/04/07 11:07:47;;;;;;;3.83;1.17;;;;;;;28.10;18.28;100214.28;12919691;22;96870;-82
2023/04/07 11:13:06;;;;;;;2.73;0.80;;;;;;;29.28;17.09;100203.22;12917032;22;96934;-80
2023/04/07 11:18:11;;;;;;;1.48;0.90;;;;;;;29.47;16.98;100193.78;12916444;22;97220;-80
2023/04/07 11:23:16;;;;;;;1.88;0.80;;;;;;;29.18;16.37;100195.34;12916539;22;96955;-78
2023/04/07 11:28:21;;;;;;;2.50;1.10;;;;;;;30.00;16.21;100188.19;12914048;22;97951;-80
2023/04/07 11:33:27;;;;;;;0.90;0.68;;;;;;;29.26;16.67;100169.22;12917176;22;97182;-83
2023/04/07 11:38:36;;;;;;;2.78;0.80;;;;;;;29.10;16.65;100167.47;12921440;22;97365;-85
2023/04/07 11:43:42;;;;;;;2.22;0.80;;;;;;;28.90;17.05;100161.66;12915155;22;97111;-82
2023/04/07 11:48:55;;;;;;;1.40;0.88;;;;;;;28.38;16.76;100157.03;12916159;22;97180;-81
2023/04/07 11:53:58;;;;;;;;;;;;;;;28.60;16.25;100140.00;12915004;22;96910;-81
2023/04/07 11:59:03;;;;;;;1.05;0.60;;;;;;;28.98;16.97;100147.25;12913629;22;97139;-83
2023/04/07 12:04:06;;;;;;;3.80;0.88;;;;;;;28.13;16.41;100133.78;12916946;22;96648;-81
2023/04/07 12:09:26;;;;;;;;;;;;;;;28.52;17.46;100121.09;12917510;22;97285;-82
2023/04/07 12:14:30;;;;;;;2.05;0.80;;;;;;;29.25;16.53;100108.72;12917255;22;97190;-90
2023/04/07 12:19:34;;;;;;;5.20;1.17;;;;;;;30.03;16.23;100120.81;12915598;22;97027;-86
2023/04/07 12:24:38;;;;;;;2.00;1.02;;;;;;;30.66;16.54;100116.59;12916247;22;96646;-86
2023/04/07 12:29:43;;;;;;;1.80;0.90;;;;;;;30.63;16.83;100109.66;12916382;22;96675;-87
2023/04/07 12:34:46;;;;;;;1.17;0.70;;;;;;;30.62;16.42;100099.84;12917129;22;96625;-87
2023/04/07 12:39:49;;;;;;;;;;;;;;;30.24;17.41;100095.63;12918596;22;97091;-82
2023/04/07 12:44:55;;;;;;;1.83;0.73;;;;;;;29.95;18.54;100098.34;12917257;22;97036;-86
2023/04/07 12:49:58;;;;;;;1.70;1.10;;;;;;;30.38;17.96;100092.03;12915155;22;97264;-88
2023/04/07 12:55:02;;;;;;;2.58;1.27;;;;;;;30.92;17.29;100082.38;12913761;22;97065;-85
2023/04/07 13:00:11;;;;;;;2.03;1.20;;;;;;;30.95;17.41;100079.31;12919189;22;97096;-91
2023/04/07 13:05:14;;;;;;;3.50;1.75;;;;;;;30.29;17.99;100074.16;12915034;22;96852;-87
2023/04/07 13:10:17;;;;;;;;;;;;;;;30.77;18.43;100067.19;12912142;22;97254;-82
2023/04/07 13:15:22;;;;;;;3.33;1.02;;;;;;;30.13;19.46;100061.66;12915702;22;97323;-83
2023/04/07 13:20:26;;;;;;;2.17;1.20;;;;;;;29.98;18.18;100054.53;12914037;22;97157;-82
2023/04/07 13:25:30;;;;;;;4.50;0.90;;;;;;;30.07;18.16;100040.66;12916428;22;97201;-83
2023/04/07 13:30:35;;;;;;;3.15;1.10;;;;;;;29.56;17.63;100044.38;12919492;22;96758;-79
2023/04/07 13:35:38;;;;;;;3.72;0.95;;;;;;;29.79;17.92;100034.28;12915418;22;97221;-77
2023/04/07 13:40:43;;;;;;;1.58;1.00;;;;;;;29.67;18.36;100030.34;12916339;22;96914;-81
2023/04/07 13:45:48;;;;;;;2.22;1.00;;;;;;;29.50;18.08;100027.97;12914493;22;97015;-80
2023/04/07 13:50:52;;;;;;;1.60;1.10;;;;;;;29.61;19.03;100024.81;12916088;22;97332;-80
2023/04/07 13:55:58;;;;;;;3.45;0.95;;;;;;;29.54;18.49;100013.88;12912129;22;97382;-81
2023/04/07 14:01:03;;;;;;;2.13;0.95;;;;;;;29.63;18.31;100022.75;12910121;22;97218;-82
2023/04/07 14:06:06;;;;;;;1.77;1.00;;;;;;;29.36;18.96;100004.41;12913639;22;96679;-82
2023/04/07 14:25:27;;;;;;;3.33;1.70;;;;;;;29.40;20.57;99990.28;10242631;28;96565;-83
2023/04/07 14:30:33;;;;;;;3.75;1.90;;;;;;;28.70;20.81;99995.22;10215300;28;98567;-81
2023/04/07 14:35:37;;;;;;;4.32;1.90;;;;;;;28.52;21.14;99991.97;10205809;28;96927;-80
2023/04/07 14:40:41;;;;;;;5.45;2.20;;;;;;;28.76;21.37;99982.78;10208816;28;98692;-81
2023/04/07 14:45:45;;;;;;;4.15;1.92;;;;;;;28.51;20.90;99974.06;10202310;28;98630;-81
2023/04/07 14:50:48;;;;;;;3.75;1.90;;;;;;;28.82;22.20;99977.50;10204086;28;96995;-81
2023/04/07 14:56:06;;;;;;;4.75;2.35;;;;;;;28.77;21.92;99985.34;10190390;28;98669;-80
2023/04/07 15:01:09;;;;;;;3.25;1.63;;;;;;;28.58;21.08;99977.72;10201902;28;97601;-80
2023/04/07 15:06:14;;;;;;;4.50;1.88;;;;;;;28.60;20.59;99972.13;10202676;28;96972;-78
2023/04/07 15:11:18;;;;;;;4.82;1.73;;;;;;;28.31;21.03;99972.84;10208233;28;99241;-79
2023/04/07 15:16:22;;;;;;;2.53;1.70;;;;;;;28.33;21.19;99973.50;10208114;28;96764;-82
2023/04/07 15:21:25;;;;;;;5.25;1.35;;;;;;;28.28;21.62;99962.34;10213625;28;97708;-80
2023/04/07 15:26:30;;;;;;;2.95;1.70;;;;;;;28.12;22.73;99977.88;10173913;28;98947;-82
2023/04/07 15:31:33;;;;;;;3.33;1.67;;;;;;;28.08;22.10;99974.69;10174032;28;96888;-82
2023/04/07 15:36:37;;;;;;;2.72;1.73;;;;;;;27.90;22.65;99968.69;10173332;28;96955;-82
2023/04/07 15:41:42;;;;;;;4.55;1.83;;;;;;;27.95;22.28;99966.28;10172803;28;96857;-82
2023/04/07 15:46:45;;;;;;;4.25;1.88;;;;;;;27.70;22.84;99962.06;10173844;28;98905;-83
2023/04/07 15:51:50;;;;;;;4.00;2.08;;;;;;;27.86;23.62;99961.94;10174116;28;97543;-82
2023/04/07 15:56:54;;;;;;;;;;;;;;;27.58;23.75;99960.72;10177623;28;96882;-83
2023/04/07 16:01:57;;;;;;;;;;;;;;;27.36;25.75;99980.38;10172921;28;99019;-82
2023/04/07 16:07:01;;;;;;;4.63;1.90;;;;;;;27.13;24.48;99968.66;10174275;28;97011;-82
2023/04/07 16:12:06;;;;;;;3.90;2.22;;;;;;;27.14;25.11;99967.63;10173296;28;97513;-82
2023/04/07 16:17:10;;;;;;;4.30;1.95;;;;;;;27.02;25.93;99972.53;10174983;28;97530;-82
2023/04/07 16:22:13;;;;;;;5.15;2.03;;;;;;;26.67;25.88;99972.91;10175577;28;99520;-82
2023/04/07 16:27:18;;;;;;;5.18;1.92;;;;;;;26.64;26.67;99978.66;10176179;28;97280;-81
2023/04/07 16:32:21;;;;;;;2.67;1.63;;;;;;;26.50;26.58;99980.16;10172365;28;98763;-80
2023/04/07 16:37:25;;;;;;;3.58;1.92;;;;;;;26.42;26.64;99982.84;10175360;28;97422;-79
2023/04/07 16:42:30;;;;;;;3.92;1.83;;;;;;;26.30;26.17;99978.75;10167440;28;98854;-81
2023/04/07 16:47:34;;;;;;;5.50;2.03;;;;;;;26.26;26.22;99981.97;10167772;28;97581;-80
2023/04/07 16:52:37;;;;;;;2.90;1.40;;;;;;;26.14;25.45;99989.56;10170724;28;98483;-80
2023/04/07 16:57:42;;;;;;;3.90;1.57;;;;;;;26.09;26.45;99988.34;10167959;28;96829;-82
2023/04/07 17:02:45;;;;;;;4.25;2.10;;;;;;;26.09;26.80;99994.56;10171686;28;99080;-80
2023/04/07 17:07:48;;;;;;;4.05;1.92;;;;;;;25.99;26.86;99988.47;10177442;28;98925;-79
2023/04/07 17:12:55;;;;;;;4.83;1.70;;;;;;;25.86;27.29;99997.06;10171898;28;97522;-81
2023/04/07 17:17:58;;;;;;;5.07;2.10;;;;;;;25.74;27.89;100008.31;10163449;28;99048;-80
2023/04/07 17:23:01;;;;;;;3.38;2.10;;;;;;;25.67;28.14;100005.41;10169350;28;97121;-84
2023/04/07 17:28:06;;;;;;;4.00;1.93;;;;;;;25.62;28.55;100001.50;10166331;28;96974;-89
2023/04/07 17:33:11;;;;;;;4.60;2.20;;;;;;;25.56;28.92;100002.97;10164927;28;96878;-83
2023/04/07 17:38:15;;;;;;;4.22;2.17;;;;;;;25.33;28.66;100009.09;10175105;28;96923;-82
2023/04/07 17:43:21;;;;;;;3.93;2.27;;;;;;;25.29;29.28;100007.72;10177372;28;98885;-79
2023/04/07 17:48:25;;;;;;;4.57;2.00;;;;;;;25.21;29.74;100019.28;10175417;28;96880;-80
2023/04/07 17:53:30;;;;;;;3.63;2.43;;;;;;;25.12;29.83;100025.63;10170278;28;97675;-78
2023/04/07 17:58:35;;;;;;;4.07;2.00;;;;;;;24.99;30.07;100032.41;10170330;28;96950;-79
2023/04/07 18:03:38;;;;;;;3.70;1.92;;;;;;;24.81;29.83;100035.97;10171486;28;99230;-78
2023/04/07 18:08:42;;;;;;;4.03;2.03;;;;;;;24.68;29.62;100038.22;10169930;28;96954;-79
2023/04/07 18:13:47;;;;;;;4.47;1.67;;;;;;;24.42;29.67;100042.69;10171102;28;97704;-78
2023/04/07 18:18:51;;;;;;;5.30;2.10;;;;;;;24.22;29.79;100048.34;10171378;28;97061;-78
2023/04/07 18:23:55;;;;;;;5.35;1.92;;;;;;;24.05;30.07;100054.53;10170497;28;97045;-78
2023/04/07 18:29:00;;;;;;;3.63;2.27;;;;;;;23.89;30.80;100054.34;10172390;28;97169;-78
2023/04/07 18:34:03;;;;;;;4.13;2.50;;;;;;;23.74;31.01;100067.41;10172749;28;99187;-78
2023/04/07 18:39:07;;;;;;;4.88;3.08;;;;;;;23.63;31.20;100070.31;10171670;28;98641;-78
2023/04/07 18:44:13;;;;;;;3.70;2.17;;;;;;;23.51;31.31;100069.59;10171684;28;98980;-78
2023/04/07 18:49:17;;;;;;;4.35;2.13;;;;;;;23.46;31.17;100077.25;10171225;28;97585;-78
2023/04/07 18:54:26;;;;;;;9.15;3.33;;;;;;;23.45;31.52;100089.00;10171219;28;98847;-81
2023/04/07 18:59:42;;;;;;;84.85;64.30;;;;;;;23.38;32.20;100104.00;10176279;28;96763;-81
2023/04/07 19:04:45;;;;;;;8.98;5.30;;;;;;;22.84;36.35;100105.63;10171315;28;97076;-81
2023/04/07 19:09:55;;;;;;;7.75;4.30;;;;;;;22.30;37.18;100106.97;10180187;28;96800;-81
2023/04/07 19:15:00;;;;;;;6.30;4.07;;;;;;;21.86;38.87;100114.56;10179703;28;97005;-81
2023/04/07 19:20:07;;;;;;;11.00;6.95;;;;;;;21.82;38.61;100118.47;10182342;28;97312;-80
2023/04/07 19:25:17;;;;;;;8.00;5.38;;;;;;;21.54;39.59;100125.41;10181498;28;96932;-83
2023/04/07 19:30:22;;;;;;;12.02;5.57;;;;;;;21.17;40.71;100140.25;10181556;28;99456;-83
2023/04/07 19:35:27;;;;;;;10.88;6.15;;;;;;;20.98;41.12;100135.56;10180063;28;98821;-82
2023/04/07 19:40:32;;;;;;;12.45;7.20;;;;;;;20.86;41.11;100141.94;10174843;28;99756;-81
2023/04/07 19:45:36;;;;;;;10.35;4.75;;;;;;;20.79;39.98;100158.66;10177049;28;96879;-81
2023/04/07 19:50:42;;;;;;;9.43;5.60;;;;;;;20.88;40.07;100166.75;10176044;28;97505;-82
2023/04/07 19:55:47;;;;;;;10.57;5.93;;;;;;;20.84;40.24;100183.19;10178345;28;96787;-81
2023/04/07 20:00:52;;;;;;;13.07;6.30;;;;;;;20.64;40.58;100190.16;10179992;28;97099;-81
2023/04/07 20:05:56;;;;;;;17.70;7.95;;;;;;;20.53;41.24;100192.88;10178808;28;97559;-80
2023/04/07 20:10:59;;;;;;;14.43;7.53;;;;;;;20.20;42.79;100192.91;10167442;28;100084;-84
2023/04/07 20:16:04;;;;;;;11.95;5.97;;;;;;;19.89;44.01;100201.66;10175712;28;97203;-84
2023/04/07 20:21:06;;;;;;;;;;;;;;;19.75;43.96;100213.38;10172758;28;97065;-80
2023/04/07 20:26:16;;;;;;;17.77;11.57;;;;;;;19.57;43.72;100220.16;10168867;28;99011;-78
2023/04/07 20:31:23;;;;;;;11.32;5.22;;;;;;;19.82;43.21;100221.78;10172316;28;97776;-80
2023/04/07 20:36:26;;;;;;;8.80;3.75;;;;;;;19.92;42.71;100225.44;10168290;28;98826;-83
2023/04/07 20:41:30;;;;;;;7.40;3.63;;;;;;;19.85;43.46;100227.75;10182440;28;99174;-81
2023/04/07 20:46:37;;;;;;;8.48;3.95;;;;;;;19.24;45.04;100228.88;10169637;28;98771;-79
2023/04/07 20:51:44;;;;;;;8.48;3.42;;;;;;;19.46;44.15;100238.81;10172671;28;98834;-81
2023/04/07 21:03:03;;;;;;;6.18;3.45;;;;;;;18.70;47.26;100242.78;10027233;29;97031;-82
2023/04/07 21:08:08;;;;;;;8.35;3.20;;;;;;;18.77;46.14;100249.38;10033643;28;97704;-81
2023/04/07 21:13:11;;;;;;;5.43;3.25;;;;;;;19.13;44.84;100252.84;10119174;28;97019;-80
2023/04/07 21:18:16;;;;;;;5.63;3.13;;;;;;;19.00;45.60;100245.88;10171433;28;99403;-80
2023/04/07 21:23:21;;;;;;;6.60;3.35;;;;;;;19.00;45.50;100253.88;10173305;28;96906;-80
2023/04/07 21:28:24;;;;;;;6.38;3.28;;;;;;;19.21;44.66;100253.13;10175463;28;97388;-80
2023/04/07 21:33:29;;;;;;;8.50;2.78;;;;;;;18.92;45.26;100254.44;10170693;28;97170;-81
2023/04/07 21:38:32;;;;;;;;;;;;;;;19.08;44.21;100248.81;10162316;28;99309;-81
2023/04/07 21:43:35;;;;;;;6.70;3.33;;;;;;;19.15;44.36;100258.06;10166192;28;98750;-81
2023/04/07 21:48:39;;;;;;;5.18;2.83;;;;;;;19.16;44.38;100257.13;10169167;28;96997;-81
2023/04/07 21:53:42;;;;;;;;;;;;;;;18.24;45.83;100265.69;10176542;28;97148;-81
2023/04/07 21:58:46;;;;;;;4.22;2.67;;;;;;;17.82;47.73;100262.41;10169715;28;96929;-81
2023/04/07 22:03:51;;;;;;;6.72;2.95;;;;;;;17.77;46.98;100267.19;10170856;28;98607;-81
2023/04/07 22:08:54;;;;;;;;;;;;;;;17.89;47.19;100262.81;10169581;28;98225;-81
2023/04/07 22:14:03;;;;;;;8.60;3.05;;;;;;;17.99;45.69;100266.53;10168360;28;98512;-82
2023/04/07 22:19:08;;;;;;;5.60;2.70;;;;;;;18.38;44.85;100268.22;10169475;28;97623;-81
2023/04/07 22:24:11;;;;;;;5.47;2.50;;;;;;;17.64;47.38;100265.47;10175981;28;96835;-81
2023/04/07 22:29:14;;;;;;;5.70;2.55;;;;;;;17.86;46.59;100268.38;10176543;28;97399;-81
2023/04/07 22:34:19;;;;;;;3.83;2.47;;;;;;;18.18;44.83;100273.16;10176744;28;96757;-81
2023/04/07 22:39:22;;;;;;;;;;;;;;;18.21;45.41;100269.44;10180303;28;97544;-81
2023/04/07 22:44:25;;;;;;;4.57;2.50;;;;;;;18.34;44.67;100266.72;10176687;28;96993;-82
2023/04/07 22:49:32;;;;;;;3.65;2.30;;;;;;;18.25;45.51;100275.41;10183978;28;99327;-81
2023/04/07 22:54:35;;;;;;;6.03;2.67;;;;;;;17.21;47.87;100267.47;10175535;28;98289;-81
2023/04/07 22:59:40;;;;;;;5.60;2.50;;;;;;;17.76;46.64;100269.97;10177576;28;98398;-81
2023/04/07 23:04:44;;;;;;;5.90;2.80;;;;;;;17.97;45.58;100273.78;10174739;28;96884;-82
2023/04/07 23:09:48;;;;;;;5.90;2.63;;;;;;;17.94;46.28;100282.84;10184295;28;96893;-81
2023/04/07 23:14:52;;;;;;;5.13;2.97;;;;;;;17.28;48.36;100282.06;10172639;28;99307;-82
2023/04/07 23:19:56;;;;;;;4.50;2.47;;;;;;;17.39;47.90;100284.88;10171697;28;97798;-81
2023/04/07 23:25:00;;;;;;;4.55;2.58;;;;;;;16.77;50.29;100278.34;10175100;28;97227;-82
2023/04/07 23:30:03;;;;;;;5.55;2.97;;;;;;;17.12;48.84;100284.03;10174559;28;96850;-82
2023/04/07 23:35:09;;;;;;;3.13;2.33;;;;;;;16.82;49.53;100286.03;10174789;28;96820;-82
2023/04/07 23:40:13;;;;;;;5.03;2.50;;;;;;;17.32;48.18;100280.91;10176222;28;98025;-82
2023/04/07 23:45:16;;;;;;;4.53;2.80;;;;;;;16.74;49.41;100275.91;10169097;28;98563;-82
2023/04/07 23:50:24;;;;;;;5.15;2.85;;;;;;;16.21;51.64;100283.72;10175037;28;96931;-82
2023/04/07 23:55:27;;;;;;;5.30;2.53;;;;;;;16.49;50.20;100282.88;10175189;28;98261;-81
